<?xml version="1.0" encoding="UTF-8" standalone="no" ?>
<gpx xmlns="http://www.topografix.com/GPX/1/1" xmlns:xsi="http://www.w3.org/2001/XMLSchema-instance" xsi:schemaLocation="http://www.topografix.com/GPX/1/1 http://www.topografix.com/GPX/1/1/gpx.xsd" version="1.1" creator="VisuGPX - https://www.visugpx.com">
  <metadata>
    <name>sigean le rieu et les sentiers de roquefort</name>
    <desc><![CDATA[il me manque la fin  car mon gps c'est arrêté............]]></desc>
  </metadata>
  <trk>
    <name><![CDATA[Sigean le rieu et Roquefort ]]></name>
    <extensions>
      <line xmlns="http://www.topografix.com/GPX/gpx_style/0/2">
        <color>E-Bike Ride </color>
        <width> Strava</width>
      </line>
    </extensions>
    <trkseg>
      <trkpt lat="43.05895" lon="2.92061">
        <ele>53.6</ele>
        <time>2020-06-03T10:22:00.000Z</time>
      </trkpt>
      <trkpt lat="43.05895" lon="2.92061">
        <ele>53.6</ele>
        <time>2020-06-03T10:22:00.000Z</time>
      </trkpt>
      <trkpt lat="43.05332" lon="2.92247">
        <ele>56.2</ele>
        <time>2020-06-03T10:24:32.000Z</time>
      </trkpt>
      <trkpt lat="43.05316" lon="2.92266">
        <ele>56.6</ele>
        <time>2020-06-03T10:24:37.000Z</time>
      </trkpt>
      <trkpt lat="43.05313" lon="2.9227">
        <ele>57</ele>
        <time>2020-06-03T10:24:38.000Z</time>
      </trkpt>
      <trkpt lat="43.0531" lon="2.92274">
        <ele>57.4</ele>
        <time>2020-06-03T10:24:39.000Z</time>
      </trkpt>
      <trkpt lat="43.05306" lon="2.92278">
        <ele>57.8</ele>
        <time>2020-06-03T10:24:40.000Z</time>
      </trkpt>
      <trkpt lat="43.05303" lon="2.92282">
        <ele>58.2</ele>
        <time>2020-06-03T10:24:41.000Z</time>
      </trkpt>
      <trkpt lat="43.05281" lon="2.92309">
        <ele>58.2</ele>
        <time>2020-06-03T10:24:48.000Z</time>
      </trkpt>
      <trkpt lat="43.05253" lon="2.92334">
        <ele>58.2</ele>
        <time>2020-06-03T10:24:56.000Z</time>
      </trkpt>
      <trkpt lat="43.05245" lon="2.92338">
        <ele>58.2</ele>
        <time>2020-06-03T10:24:58.000Z</time>
      </trkpt>
      <trkpt lat="43.05232" lon="2.92336">
        <ele>58.2</ele>
        <time>2020-06-03T10:25:01.000Z</time>
      </trkpt>
      <trkpt lat="43.05223" lon="2.92336">
        <ele>58.2</ele>
        <time>2020-06-03T10:25:03.000Z</time>
      </trkpt>
      <trkpt lat="43.05203" lon="2.92333">
        <ele>58.2</ele>
        <time>2020-06-03T10:25:08.000Z</time>
      </trkpt>
      <trkpt lat="43.05169" lon="2.92329">
        <ele>58.2</ele>
        <time>2020-06-03T10:25:15.000Z</time>
      </trkpt>
      <trkpt lat="43.05156" lon="2.92332">
        <ele>58.2</ele>
        <time>2020-06-03T10:25:18.000Z</time>
      </trkpt>
      <trkpt lat="43.05144" lon="2.92339">
        <ele>58.2</ele>
        <time>2020-06-03T10:25:21.000Z</time>
      </trkpt>
      <trkpt lat="43.05136" lon="2.92345">
        <ele>58.2</ele>
        <time>2020-06-03T10:25:23.000Z</time>
      </trkpt>
      <trkpt lat="43.05125" lon="2.92357">
        <ele>58.2</ele>
        <time>2020-06-03T10:25:26.000Z</time>
      </trkpt>
      <trkpt lat="43.05122" lon="2.92361">
        <ele>58.2</ele>
        <time>2020-06-03T10:25:27.000Z</time>
      </trkpt>
      <trkpt lat="43.05118" lon="2.92365">
        <ele>58.2</ele>
        <time>2020-06-03T10:25:28.000Z</time>
      </trkpt>
      <trkpt lat="43.05103" lon="2.9237">
        <ele>58.2</ele>
        <time>2020-06-03T10:25:31.000Z</time>
      </trkpt>
      <trkpt lat="43.05088" lon="2.92367">
        <ele>58.2</ele>
        <time>2020-06-03T10:25:34.000Z</time>
      </trkpt>
      <trkpt lat="43.05079" lon="2.92365">
        <ele>58.2</ele>
        <time>2020-06-03T10:25:36.000Z</time>
      </trkpt>
      <trkpt lat="43.05049" lon="2.92361">
        <ele>58.2</ele>
        <time>2020-06-03T10:25:43.000Z</time>
      </trkpt>
      <trkpt lat="43.05034" lon="2.92362">
        <ele>58.2</ele>
        <time>2020-06-03T10:25:46.000Z</time>
      </trkpt>
      <trkpt lat="43.05018" lon="2.92367">
        <ele>58.2</ele>
        <time>2020-06-03T10:25:49.000Z</time>
      </trkpt>
      <trkpt lat="43.04982" lon="2.92374">
        <ele>58.2</ele>
        <time>2020-06-03T10:25:56.000Z</time>
      </trkpt>
      <trkpt lat="43.04977" lon="2.92373">
        <ele>58.2</ele>
        <time>2020-06-03T10:25:57.000Z</time>
      </trkpt>
      <trkpt lat="43.04967" lon="2.92373">
        <ele>57.8</ele>
        <time>2020-06-03T10:25:59.000Z</time>
      </trkpt>
      <trkpt lat="43.04962" lon="2.92373">
        <ele>57.4</ele>
        <time>2020-06-03T10:26:00.000Z</time>
      </trkpt>
      <trkpt lat="43.04957" lon="2.92372">
        <ele>57</ele>
        <time>2020-06-03T10:26:01.000Z</time>
      </trkpt>
      <trkpt lat="43.04951" lon="2.9237">
        <ele>56.6</ele>
        <time>2020-06-03T10:26:02.000Z</time>
      </trkpt>
      <trkpt lat="43.04946" lon="2.92369">
        <ele>56.2</ele>
        <time>2020-06-03T10:26:03.000Z</time>
      </trkpt>
      <trkpt lat="43.04927" lon="2.92358">
        <ele>56.2</ele>
        <time>2020-06-03T10:26:07.000Z</time>
      </trkpt>
      <trkpt lat="43.04923" lon="2.92355">
        <ele>56.2</ele>
        <time>2020-06-03T10:26:08.000Z</time>
      </trkpt>
      <trkpt lat="43.04879" lon="2.92326">
        <ele>56.2</ele>
        <time>2020-06-03T10:26:17.000Z</time>
      </trkpt>
      <trkpt lat="43.04868" lon="2.92321">
        <ele>56.2</ele>
        <time>2020-06-03T10:26:19.000Z</time>
      </trkpt>
      <trkpt lat="43.04857" lon="2.92319">
        <ele>56.2</ele>
        <time>2020-06-03T10:26:21.000Z</time>
      </trkpt>
      <trkpt lat="43.04851" lon="2.9232">
        <ele>56.2</ele>
        <time>2020-06-03T10:26:22.000Z</time>
      </trkpt>
      <trkpt lat="43.04845" lon="2.92321">
        <ele>56.2</ele>
        <time>2020-06-03T10:26:23.000Z</time>
      </trkpt>
      <trkpt lat="43.04829" lon="2.92329">
        <ele>56.2</ele>
        <time>2020-06-03T10:26:26.000Z</time>
      </trkpt>
      <trkpt lat="43.04813" lon="2.92349">
        <ele>56.2</ele>
        <time>2020-06-03T10:26:30.000Z</time>
      </trkpt>
      <trkpt lat="43.04809" lon="2.92354">
        <ele>56.2</ele>
        <time>2020-06-03T10:26:31.000Z</time>
      </trkpt>
      <trkpt lat="43.04785" lon="2.92396">
        <ele>56.2</ele>
        <time>2020-06-03T10:26:38.000Z</time>
      </trkpt>
      <trkpt lat="43.04768" lon="2.92426">
        <ele>56.2</ele>
        <time>2020-06-03T10:26:43.000Z</time>
      </trkpt>
      <trkpt lat="43.04758" lon="2.92443">
        <ele>56.2</ele>
        <time>2020-06-03T10:26:46.000Z</time>
      </trkpt>
      <trkpt lat="43.04737" lon="2.92485">
        <ele>56.2</ele>
        <time>2020-06-03T10:26:53.000Z</time>
      </trkpt>
      <trkpt lat="43.04733" lon="2.92499">
        <ele>56.2</ele>
        <time>2020-06-03T10:26:55.000Z</time>
      </trkpt>
      <trkpt lat="43.0473" lon="2.9252">
        <ele>56.2</ele>
        <time>2020-06-03T10:26:58.000Z</time>
      </trkpt>
      <trkpt lat="43.04728" lon="2.92542">
        <ele>56.2</ele>
        <time>2020-06-03T10:27:01.000Z</time>
      </trkpt>
      <trkpt lat="43.04729" lon="2.92565">
        <ele>56.2</ele>
        <time>2020-06-03T10:27:04.000Z</time>
      </trkpt>
      <trkpt lat="43.04725" lon="2.92618">
        <ele>56.2</ele>
        <time>2020-06-03T10:27:11.000Z</time>
      </trkpt>
      <trkpt lat="43.04718" lon="2.92638">
        <ele>56.2</ele>
        <time>2020-06-03T10:27:14.000Z</time>
      </trkpt>
      <trkpt lat="43.04709" lon="2.92656">
        <ele>56.2</ele>
        <time>2020-06-03T10:27:17.000Z</time>
      </trkpt>
      <trkpt lat="43.04705" lon="2.92661">
        <ele>56.2</ele>
        <time>2020-06-03T10:27:18.000Z</time>
      </trkpt>
      <trkpt lat="43.04688" lon="2.9268">
        <ele>56.2</ele>
        <time>2020-06-03T10:27:22.000Z</time>
      </trkpt>
      <trkpt lat="43.04653" lon="2.92701">
        <ele>56.2</ele>
        <time>2020-06-03T10:27:29.000Z</time>
      </trkpt>
      <trkpt lat="43.04615" lon="2.92721">
        <ele>56.2</ele>
        <time>2020-06-03T10:27:37.000Z</time>
      </trkpt>
      <trkpt lat="43.04581" lon="2.9275">
        <ele>56.2</ele>
        <time>2020-06-03T10:27:45.000Z</time>
      </trkpt>
      <trkpt lat="43.04552" lon="2.92781">
        <ele>56.2</ele>
        <time>2020-06-03T10:27:52.000Z</time>
      </trkpt>
      <trkpt lat="43.04544" lon="2.9279">
        <ele>56.2</ele>
        <time>2020-06-03T10:27:54.000Z</time>
      </trkpt>
      <trkpt lat="43.04516" lon="2.9282">
        <ele>56.2</ele>
        <time>2020-06-03T10:28:01.000Z</time>
      </trkpt>
      <trkpt lat="43.04483" lon="2.92853">
        <ele>56.2</ele>
        <time>2020-06-03T10:28:09.000Z</time>
      </trkpt>
      <trkpt lat="43.04446" lon="2.92893">
        <ele>56.2</ele>
        <time>2020-06-03T10:28:18.000Z</time>
      </trkpt>
      <trkpt lat="43.04415" lon="2.92931">
        <ele>56.2</ele>
        <time>2020-06-03T10:28:26.000Z</time>
      </trkpt>
      <trkpt lat="43.04381" lon="2.92978">
        <ele>56.2</ele>
        <time>2020-06-03T10:28:35.000Z</time>
      </trkpt>
      <trkpt lat="43.04359" lon="2.93013">
        <ele>56.2</ele>
        <time>2020-06-03T10:28:42.000Z</time>
      </trkpt>
      <trkpt lat="43.04335" lon="2.93055">
        <ele>56.2</ele>
        <time>2020-06-03T10:28:50.000Z</time>
      </trkpt>
      <trkpt lat="43.04317" lon="2.93095">
        <ele>56.2</ele>
        <time>2020-06-03T10:28:57.000Z</time>
      </trkpt>
      <trkpt lat="43.04295" lon="2.93155">
        <ele>56.2</ele>
        <time>2020-06-03T10:29:07.000Z</time>
      </trkpt>
      <trkpt lat="43.0429" lon="2.93165">
        <ele>56.2</ele>
        <time>2020-06-03T10:29:09.000Z</time>
      </trkpt>
      <trkpt lat="43.04282" lon="2.93184">
        <ele>56.2</ele>
        <time>2020-06-03T10:29:12.000Z</time>
      </trkpt>
      <trkpt lat="43.04281" lon="2.9319">
        <ele>56.2</ele>
        <time>2020-06-03T10:29:13.000Z</time>
      </trkpt>
      <trkpt lat="43.04272" lon="2.93222">
        <ele>56.2</ele>
        <time>2020-06-03T10:29:18.000Z</time>
      </trkpt>
      <trkpt lat="43.0426" lon="2.93284">
        <ele>56.2</ele>
        <time>2020-06-03T10:29:27.000Z</time>
      </trkpt>
      <trkpt lat="43.04253" lon="2.93324">
        <ele>56.6</ele>
        <time>2020-06-03T10:29:33.000Z</time>
      </trkpt>
      <trkpt lat="43.04252" lon="2.9333">
        <ele>57</ele>
        <time>2020-06-03T10:29:34.000Z</time>
      </trkpt>
      <trkpt lat="43.04251" lon="2.93337">
        <ele>57.4</ele>
        <time>2020-06-03T10:29:35.000Z</time>
      </trkpt>
      <trkpt lat="43.0425" lon="2.93344">
        <ele>57.8</ele>
        <time>2020-06-03T10:29:36.000Z</time>
      </trkpt>
      <trkpt lat="43.04249" lon="2.9335">
        <ele>58.2</ele>
        <time>2020-06-03T10:29:37.000Z</time>
      </trkpt>
      <trkpt lat="43.04242" lon="2.93388">
        <ele>58.2</ele>
        <time>2020-06-03T10:29:43.000Z</time>
      </trkpt>
      <trkpt lat="43.04234" lon="2.93438">
        <ele>58.2</ele>
        <time>2020-06-03T10:29:51.000Z</time>
      </trkpt>
      <trkpt lat="43.04224" lon="2.93492">
        <ele>58.2</ele>
        <time>2020-06-03T10:29:59.000Z</time>
      </trkpt>
      <trkpt lat="43.04084" lon="2.93887">
        <ele>57.8</ele>
        <time>2020-06-03T10:31:00.000Z</time>
      </trkpt>
      <trkpt lat="43.04082" lon="2.93893">
        <ele>57.4</ele>
        <time>2020-06-03T10:31:01.000Z</time>
      </trkpt>
      <trkpt lat="43.04079" lon="2.939">
        <ele>56.6</ele>
        <time>2020-06-03T10:31:02.000Z</time>
      </trkpt>
      <trkpt lat="43.04077" lon="2.93907">
        <ele>56.2</ele>
        <time>2020-06-03T10:31:03.000Z</time>
      </trkpt>
      <trkpt lat="43.04063" lon="2.93943">
        <ele>56.2</ele>
        <time>2020-06-03T10:31:08.000Z</time>
      </trkpt>
      <trkpt lat="43.04046" lon="2.93988">
        <ele>56.2</ele>
        <time>2020-06-03T10:31:15.000Z</time>
      </trkpt>
      <trkpt lat="43.04029" lon="2.94033">
        <ele>56.2</ele>
        <time>2020-06-03T10:31:22.000Z</time>
      </trkpt>
      <trkpt lat="43.04012" lon="2.94078">
        <ele>56.2</ele>
        <time>2020-06-03T10:31:29.000Z</time>
      </trkpt>
      <trkpt lat="43.03994" lon="2.94127">
        <ele>56.2</ele>
        <time>2020-06-03T10:31:37.000Z</time>
      </trkpt>
      <trkpt lat="43.03979" lon="2.94179">
        <ele>56.2</ele>
        <time>2020-06-03T10:31:44.000Z</time>
      </trkpt>
      <trkpt lat="43.03968" lon="2.94237">
        <ele>56.2</ele>
        <time>2020-06-03T10:31:52.000Z</time>
      </trkpt>
      <trkpt lat="43.03965" lon="2.94254">
        <ele>55.8</ele>
        <time>2020-06-03T10:31:54.000Z</time>
      </trkpt>
      <trkpt lat="43.03964" lon="2.94262">
        <ele>55.2</ele>
        <time>2020-06-03T10:31:55.000Z</time>
      </trkpt>
      <trkpt lat="43.03963" lon="2.94271">
        <ele>54.8</ele>
        <time>2020-06-03T10:31:56.000Z</time>
      </trkpt>
      <trkpt lat="43.03961" lon="2.9428">
        <ele>54.4</ele>
        <time>2020-06-03T10:31:57.000Z</time>
      </trkpt>
      <trkpt lat="43.0396" lon="2.94288">
        <ele>54</ele>
        <time>2020-06-03T10:31:58.000Z</time>
      </trkpt>
      <trkpt lat="43.03959" lon="2.94297">
        <ele>54</ele>
        <time>2020-06-03T10:31:59.000Z</time>
      </trkpt>
      <trkpt lat="43.03949" lon="2.94358">
        <ele>54</ele>
        <time>2020-06-03T10:32:07.000Z</time>
      </trkpt>
      <trkpt lat="43.03942" lon="2.94409">
        <ele>54</ele>
        <time>2020-06-03T10:32:13.000Z</time>
      </trkpt>
      <trkpt lat="43.0394" lon="2.94418">
        <ele>53.6</ele>
        <time>2020-06-03T10:32:14.000Z</time>
      </trkpt>
      <trkpt lat="43.03939" lon="2.94427">
        <ele>53.2</ele>
        <time>2020-06-03T10:32:15.000Z</time>
      </trkpt>
      <trkpt lat="43.03938" lon="2.94437">
        <ele>52.2</ele>
        <time>2020-06-03T10:32:16.000Z</time>
      </trkpt>
      <trkpt lat="43.03936" lon="2.94446">
        <ele>51.8</ele>
        <time>2020-06-03T10:32:17.000Z</time>
      </trkpt>
    </trkseg>
  </trk>
</gpx>